Airfield :
LOGIN :

Register | Disclaimer

   EN    FR    IT 

 










Legend :    VFR   Marginal VFR   IFR   Intensive IFR   Very Intensive IFR
Visi :
Ceiling :
>= 8 km
>= 3000ft
5 to 8 km
1000 to 3000 ft
1500m to 5 km
500 to 1000 ft
800 to 1500m
200 to 500 ft
< 800m
< 200 ft
Symbols :   Thunderstorms  Fog  Heavy snow  Heavy precipitations  Wind > 20 kt
SIGMETs :     Misc.  Thunderstorms  Icing  Turbulence  Mountain Waves  Volcanic Ashes






- Airport Elevation : 308 ft
- IATA code : POZ


EPPO - Poznan-Lawica

CURRENT METAR :
  • 201500Z 07010KT 9999 FEW038CB 21/11 Q1012

EXPIRED METARs :
  • 201430Z 08010KT 9999 FEW035CB 20/11 Q1012
  • 201400Z 06012KT 9999 FEW033CB 19/11 Q1012
  • 201330Z 07013KT 9999 FEW017CB SCT049 20/11 Q1012
  • 201300Z 06014KT 9999 FEW023CB 20/11 Q1013
  • 201230Z 05015KT 9999 SCT048CB 21/12 Q1013 RETS
  • 201200Z 01011KT 9999 TS SCT043CB 20/11 Q1013
  • 201130Z VRB03KT 9999 VCTS SCT047CB 23/10 Q1012
  • 201100Z VRB06KT 9999 SCT047CB 24/10 Q1012
  • 201030Z 16006KT 100V180 9999 SCT042CB 23/11 Q1012 RETS

TAF AMD TAF EPPO
Valid from the 20 at 14:00 until the 21 at 12:00 UTC


201400Z 2014/2112 07012KT CAVOK
TEMPO 2014/2020 VRB15G30KT 2000 TSRAGR BKN035CB
PROB40
TEMPO 2100/2104 1200 BR
TEMPO 2109/2112 10015G25KT



MET'MAP, your aeronautical weather chart ! - Copyright ORBIFLY December 2007 - Disclaimer

ORBIFLY MET'MAP TEAM :

Programming & Development : Alexandra Zaïnal
Original concept : Baudouin d'Aumeries
Technical & hardware support : Manuel Goepfert
Assistance : Marc-Olivier Méhu




SOURCES & CREDITS :

   NOAA